Time;durP1;ratioP1;P1;durP2;ratioP2;P2;SDS_P1;SDS_P2;PMS_P1;PMS_P2;Temp;Humidity;BMP_temperature;BMP_pressure;BME280_temperature;BME280_humidity;BME280_pressure;Samples;Min_cycle;Max_cycle;Signal;HPM_P1;HPM_P2
2022/10/10 00:01:55;;;;;;;1.00;0.70;;;6.70;99.90;;;;;;4670117;30;20539;-84
2022/10/10 00:08:57;;;;;;;1.63;0.60;;;6.60;99.90;;;;;;4666475;30;20041;-85
2022/10/10 00:31:05;;;;;;;2.55;0.80;;;6.70;99.90;;;;;;4714465;30;20528;-84
2022/10/10 00:34:43;;;;;;;4.25;1.00;;;6.70;99.90;;;;;;4796449;29;20051;-86
2022/10/10 00:54:51;;;;;;;1.05;0.80;;;6.50;99.90;;;;;;4846202;29;20422;-85
2022/10/10 00:59:09;;;;;;;;;;;;;;;;;;;;;
2022/10/10 01:02:59;;;;;;;1.40;0.90;;;6.50;99.90;;;;;;4714549;30;20176;-85
2022/10/10 01:10:29;;;;;;;;;;;;;;;;;;;;;
2022/10/10 01:13:54;;;;;;;1.58;0.60;;;6.50;99.90;;;;;;4695698;30;20057;-85
2022/10/10 01:56:14;;;;;;;1.10;0.80;;;6.20;99.90;;;;;;4731900;30;20053;-86
2022/10/10 02:03:17;;;;;;;1.58;0.98;;;6.20;99.90;;;;;;4763790;30;20055;-86
2022/10/10 02:10:34;;;;;;;1.48;1.13;;;5.50;99.90;;;;;;4782404;29;20365;-85
2022/10/10 02:21:33;;;;;;;;;;;;;;;;;;;;;
2022/10/10 02:30:02;;;;;;;1.35;0.90;;;6.00;99.90;;;;;;4715303;30;20055;-85
2022/10/10 02:33:40;;;;;;;1.15;0.82;;;6.00;99.90;;;;;;4631215;31;20080;-85
2022/10/10 02:48:45;;;;;;;3.53;1.02;;;6.00;99.90;;;;;;4645859;30;20082;-86
2022/10/10 02:52:29;;;;;;;1.25;0.75;;;6.00;99.90;;;;;;4645202;30;20055;-86
2022/10/10 03:03:52;;;;;;;1.27;0.70;;;5.80;99.90;;;;;;4733869;30;20043;-86
2022/10/10 03:18:50;;;;;;;;;;;;;;;;;;;;;
2022/10/10 03:33:50;;;;;;;1.33;0.73;;;6.00;99.90;;;;;;4630209;30;20422;-86
2022/10/10 04:21:21;;;;;;;1.40;1.00;;;5.70;99.90;;;;;;4887508;29;20116;-86
2022/10/10 04:32:40;;;;;;;1.67;1.10;;;5.70;99.90;;;;;;4879485;29;20044;-85
2022/10/10 04:35:57;;;;;;;2.08;1.15;;;5.70;99.90;;;;;;4785743;29;20062;-85
2022/10/10 04:52:14;;;;;;;2.95;1.25;;;5.60;99.90;;;;;;4817435;29;20203;-85
2022/10/10 04:56:13;;;;;;;;;;;;;;;;;;;;;
2022/10/10 05:00:08;;;;;;;2.20;1.10;;;5.60;99.90;;;;;;4813988;29;20057;-85
2022/10/10 05:27:29;;;;;;;2.40;1.05;;;5.40;99.90;;;;;;4785706;29;20058;-88
2022/10/10 05:38:15;;;;;;;1.92;1.40;;;5.50;99.90;;;;;;4711218;30;20485;-87
2022/10/10 05:41:26;;;;;;;2.97;1.33;;;5.50;99.90;;;;;;4702111;30;20158;-86
2022/10/10 05:44:14;;;;;;;1.42;1.13;;;5.40;99.90;;;;;;4693368;30;20104;-86
2022/10/10 05:47:21;;;;;;;3.50;1.20;;;5.40;99.90;;;;;;4692744;30;20627;-84
2022/10/10 05:51:12;;;;;;;2.90;1.40;;;5.40;99.90;;;;;;4705671;30;20053;-86
2022/10/10 05:54:22;;;;;;;3.85;1.60;;;5.40;99.90;;;;;;4671759;30;20467;-85
2022/10/10 06:01:17;;;;;;;2.72;1.20;;;5.40;99.90;;;;;;4679823;30;20080;-85
2022/10/10 06:04:36;;;;;;;2.35;1.50;;;5.50;99.90;;;;;;4682148;30;20532;-85
2022/10/10 06:07:43;;;;;;;;;;;;;;;;;;;;;
2022/10/10 06:11:10;;;;;;;2.65;1.42;;;5.60;99.90;;;;;;4748669;30;20094;-87
2022/10/10 06:14:13;;;;;;;2.40;1.00;;;5.50;99.90;;;;;;4734610;30;20156;-86
2022/10/10 06:17:31;;;;;;;2.53;1.20;;;5.50;99.90;;;;;;4750244;30;20060;-85
2022/10/10 06:28:00;;;;;;;3.60;1.30;;;5.70;99.90;;;;;;4737426;30;20576;-85
2022/10/10 06:31:38;;;;;;;;;;;;;;;;;;;;;
2022/10/10 06:35:01;;;;;;;2.67;1.30;;;6.60;99.90;;;;;;4808313;29;20054;-85
2022/10/10 06:38:25;;;;;;;1.67;1.15;;;5.30;99.90;;;;;;4830008;29;20062;-86
2022/10/10 06:42:08;;;;;;;2.47;1.48;;;6.00;99.90;;;;;;4837285;29;20089;-84
2022/10/10 06:49:08;;;;;;;1.50;0.90;;;6.10;99.90;;;;;;4723380;30;20075;-86
2022/10/10 06:52:49;;;;;;;1.58;0.90;;;6.20;99.90;;;;;;4704923;30;20072;-86
2022/10/10 06:56:25;;;;;;;4.85;1.88;;;6.30;99.90;;;;;;4707758;30;20136;-84
2022/10/10 07:00:00;;;;;;;2.50;1.17;;;6.50;99.90;;;;;;4704469;30;20124;-86
2022/10/10 07:03:37;;;;;;;2.20;1.30;;;6.80;99.90;;;;;;4669984;30;20068;-85
2022/10/10 07:06:28;;;;;;;2.50;1.30;;;7.00;99.90;;;;;;4690608;30;20509;-86
2022/10/10 07:09:41;;;;;;;2.22;1.40;;;7.20;99.90;;;;;;4691677;30;20506;-86
2022/10/10 07:12:59;;;;;;;2.58;1.10;;;7.30;99.90;;;;;;4710192;30;20265;-86
2022/10/10 07:16:23;;;;;;;4.25;2.00;;;7.50;99.90;;;;;;4707600;30;20511;-87
2022/10/10 07:22:57;;;;;;;6.32;2.60;;;7.80;99.90;;;;;;4774081;29;20049;-86
2022/10/10 07:25:45;;;;;;;4.22;1.90;;;8.00;99.90;;;;;;4876905;29;20056;-86
2022/10/10 07:32:47;;;;;;;;;;;;;;;;;;;;;
2022/10/10 07:36:36;;;;;;;4.13;1.88;;;8.30;99.90;;;;;;4786907;30;20062;-86
2022/10/10 07:40:01;;;;;;;5.85;2.13;;;8.40;99.90;;;;;;4786125;30;20055;-86
2022/10/10 07:42:48;;;;;;;2.80;1.70;;;8.50;99.90;;;;;;4729627;30;20054;-86
2022/10/10 07:45:33;;;;;;;3.55;2.70;;;8.70;99.90;;;;;;4734122;30;20064;-92
2022/10/10 07:48:48;;;;;;;;;;;;;;;;;;;;;
2022/10/10 07:56:37;;;;;;;;;;;;;;;;;;;;;
2022/10/10 07:59:50;;;;;;;;;;;;;;;;;;;;;
2022/10/10 08:03:18;;;;;;;4.97;2.38;;;9.10;99.90;;;;;;4682242;30;20140;-91
2022/10/10 08:06:43;;;;;;;3.83;2.22;;;9.20;99.90;;;;;;4695696;30;20064;-90
2022/10/10 08:09:58;;;;;;;5.72;2.45;;;10.00;99.90;;;;;;4734260;30;20129;-93
2022/10/10 08:13:12;;;;;;;5.53;2.85;;;9.30;99.90;;;;;;4737894;30;20515;-91
2022/10/10 08:37:58;;;;;;;5.68;2.53;;;10.80;99.90;;;;;;4874810;29;20076;-89
2022/10/10 08:40:30;;;;;;;8.05;3.78;;;10.80;99.90;;;;;;4899804;29;20052;-86
2022/10/10 08:43:07;;;;;;;6.75;3.33;;;11.00;99.90;;;;;;4886716;29;20048;-93
2022/10/10 08:45:39;;;;;;;7.28;3.42;;;11.10;99.90;;;;;;4886299;29;20048;-94
2022/10/10 08:48:26;;;;;;;4.50;2.50;;;11.20;99.90;;;;;;4902754;29;20064;-94
2022/10/10 08:51:12;;;;;;;10.27;3.47;;;11.30;99.90;;;;;;4899121;29;20055;-93
2022/10/10 08:53:52;;;;;;;6.68;3.35;;;10.80;99.90;;;;;;4884369;29;20088;-92
2022/10/10 08:56:30;;;;;;;4.32;2.25;;;11.50;99.90;;;;;;4883836;29;20065;-94
2022/10/10 08:59:23;;;;;;;5.93;3.45;;;11.60;99.90;;;;;;4900178;29;20055;-91
2022/10/10 09:02:03;;;;;;;4.72;2.22;;;11.80;99.90;;;;;;4881605;29;20112;-91
2022/10/10 09:04:34;;;;;;;6.93;2.60;;;11.90;99.90;;;;;;4898896;29;20118;-92
2022/10/10 09:07:49;;;;;;;5.97;2.90;;;12.00;99.90;;;;;;4866556;29;20092;-93
2022/10/10 09:11:04;;;;;;;4.72;2.97;;;12.20;99.90;;;;;;4898669;29;20044;-91
2022/10/10 09:14:37;;;;;;;9.23;3.80;;;12.20;99.90;;;;;;4896316;23;20139;-90
2022/10/10 09:18:40;;;;;;;;;;;;;;;;;;;;;
2022/10/10 09:26:06;;;;;;;5.50;3.28;;;12.60;99.90;;;;;;4919256;29;20044;-86
2022/10/10 09:29:26;;;;;;;6.75;2.58;;;12.80;99.90;;;;;;4916505;29;20054;-91
2022/10/10 09:33:01;;;;;;;6.68;2.50;;;12.80;99.90;;;;;;4923259;29;20056;-88
2022/10/10 09:40:22;;;;;;;7.22;2.53;;;13.00;99.90;;;;;;4862868;29;20061;-87
2022/10/10 09:43:53;;;;;;;3.53;2.28;;;13.10;99.90;;;;;;4856979;29;20122;-86
2022/10/10 09:47:29;;;;;;;7.45;2.60;;;13.10;99.90;;;;;;4863560;29;20041;-86
2022/10/10 09:51:31;;;;;;;5.13;2.30;;;13.20;99.90;;;;;;4905831;23;20047;-86
2022/10/10 09:55:02;;;;;;;3.70;2.03;;;13.30;99.90;;;;;;4901902;29;20056;-89
2022/10/10 09:59:17;;;;;;;;;;;;;;;;;;;;;
2022/10/10 10:09:41;;;;;;;5.68;2.47;;;14.00;99.90;;;;;;4806971;30;20086;-86
2022/10/10 10:13:07;;;;;;;;;;;;;;;;;;;;;
2022/10/10 10:20:37;;;;;;;;;;;;;;;;;;;;;
2022/10/10 10:24:20;;;;;;;;;;;;;;;;;;;;;
2022/10/10 10:27:25;;;;;;;4.60;2.35;;;14.80;99.90;;;;;;4654172;30;20063;-89
2022/10/10 10:38:27;;;;;;;4.97;2.55;;;14.90;99.90;;;;;;5006933;23;20112;-92
2022/10/10 10:45:25;;;;;;;10.40;3.13;;;15.10;99.90;;;;;;4956857;23;20055;-91
2022/10/10 10:53:56;;;;;;;;;;;;;;;;;;;;;
2022/10/10 11:05:42;;;;;;;5.65;1.92;;;16.10;99.90;;;;;;4898152;29;20537;-94
2022/10/10 11:09:11;;;;;;;4.07;2.00;;;16.20;99.90;;;;;;4884594;29;20053;-91
2022/10/10 11:12:44;;;;;;;3.72;1.88;;;16.20;99.90;;;;;;4912281;29;20106;-93
2022/10/10 11:15:57;;;;;;;8.95;2.35;;;16.20;99.90;;;;;;4904707;29;20059;-90
2022/10/10 11:28:27;;;;;;;;;;;;;;;;;;;;;
2022/10/10 11:35:53;;;;;;;4.78;1.92;;;16.00;99.90;;;;;;4983713;23;20044;-86
2022/10/10 11:40:02;;;;;;;6.47;2.53;;;15.90;99.90;;;;;;4911712;29;20118;-90
2022/10/10 11:43:48;;;;;;;4.75;2.05;;;15.60;99.90;;;;;;4890970;29;20072;-91
2022/10/10 11:51:02;;;;;;;2.20;1.40;;;15.50;99.90;;;;;;4887375;29;20040;-92
2022/10/10 11:54:49;;;;;;;3.17;1.98;;;15.30;99.90;;;;;;4879071;29;20049;-92
2022/10/10 12:06:51;;;;;;;8.38;3.20;;;15.30;99.90;;;;;;4984456;23;20127;-94
2022/10/10 12:54:48;;;;;;;10.23;3.10;;;14.90;99.90;;;;;;4867857;23;20059;-92
2022/10/10 12:57:36;;;;;;;5.80;2.50;;;14.90;99.90;;;;;;4928208;29;20409;-91
2022/10/10 13:08:36;;;;;;;7.88;3.53;;;14.50;99.90;;;;;;4894637;29;20529;-88
2022/10/10 14:11:20;;;;;;;5.50;0.40;;;13.20;99.90;;;;;;5483521;23;20502;-90
2022/10/10 14:43:42;;;;;;;6.55;0.75;;;13.10;99.90;;;;;;4816543;29;20045;-87
2022/10/10 14:46:17;;;;;;;8.57;0.60;;;13.10;99.90;;;;;;4816450;29;20058;-87
2022/10/10 14:52:36;;;;;;;7.40;1.23;;;13.20;99.90;;;;;;4802690;29;20377;-88
2022/10/10 14:55:42;;;;;;;;;;;;;;;;;;;;;
2022/10/10 14:58:36;;;;;;;9.50;1.80;;;13.20;99.90;;;;;;4759424;29;20055;-88
2022/10/10 15:01:05;;;;;;;8.60;1.00;;;13.30;99.90;;;;;;4771430;30;20131;-89
2022/10/10 15:03:34;;;;;;;13.20;1.13;;;13.40;99.90;;;;;;4753507;30;20510;-88
2022/10/10 15:20:25;;;;;;;;;;;;;;;;;;;;;
2022/10/10 15:23:13;;;;;;;12.00;1.05;;;13.40;99.90;;;;;;4848468;23;20067;-88
2022/10/10 15:31:16;;;;;;;;;;;;;;;;;;;;;
2022/10/10 15:34:22;;;;;;;4.10;0.50;;;13.20;99.90;;;;;;4852912;29;20061;-87
2022/10/10 15:37:54;;;;;;;8.07;0.90;;;12.90;99.90;;;;;;4843477;29;20097;-86
2022/10/10 15:48:13;;;;;;;6.18;1.15;;;12.70;99.90;;;;;;4857122;29;20584;-88
2022/10/10 15:51:45;;;;;;;3.72;0.50;;;12.70;99.90;;;;;;4843985;29;20462;-85
2022/10/10 15:55:07;;;;;;;5.70;1.40;;;12.70;99.90;;;;;;4859067;29;20064;-88
2022/10/10 15:58:44;;;;;;;6.70;0.77;;;12.60;99.90;;;;;;4858896;29;20197;-86
2022/10/10 16:01:59;;;;;;;;;;;;;;;;;;;;;
2022/10/10 16:05:25;;;;;;;5.85;0.95;;;12.70;99.90;;;;;;4806387;29;20067;-86
2022/10/10 16:09:05;;;;;;;;;;;;;;;;;;;;;
2022/10/10 16:12:04;;;;;;;11.82;1.00;;;12.70;99.90;;;;;;4829749;29;20089;-89
2022/10/10 16:15:17;;;;;;;9.23;0.90;;;12.70;99.90;;;;;;4829777;29;20058;-90
2022/10/10 16:18:47;;;;;;;4.45;0.77;;;12.70;99.90;;;;;;4788463;30;20556;-88
2022/10/10 16:21:32;;;;;;;8.13;1.00;;;12.50;99.90;;;;;;4779504;30;20055;-85
2022/10/10 16:25:01;;;;;;;;;;;;;;;;;;;;;
2022/10/10 16:28:57;;;;;;;8.13;1.55;;;12.40;99.90;;;;;;4740429;29;20062;-85
2022/10/10 16:32:08;;;;;;;8.70;1.33;;;12.20;99.90;;;;;;4778500;30;20155;-86
2022/10/10 16:38:56;;;;;;;7.45;1.40;;;12.00;99.90;;;;;;4775913;30;20417;-87
2022/10/10 16:42:27;;;;;;;7.57;1.33;;;12.00;99.90;;;;;;4770580;30;20420;-88
2022/10/10 16:45:40;;;;;;;;;;;;;;;;;;;;;
2022/10/10 16:52:44;;;;;;;10.55;0.95;;;11.60;99.90;;;;;;4743691;30;20190;-91
2022/10/10 16:56:28;;;;;;;5.05;0.73;;;12.00;99.90;;;;;;4781642;29;20051;-87
2022/10/10 16:59:33;;;;;;;7.72;0.88;;;11.00;99.90;;;;;;4744161;30;20418;-89
2022/10/10 17:02:44;;;;;;;;;;;;;;;;;;;;;
2022/10/10 17:06:17;;;;;;;8.20;1.17;;;11.30;99.90;;;;;;4755189;30;20451;-88
2022/10/10 17:09:35;;;;;;;8.77;1.00;;;11.30;99.90;;;;;;4766539;29;20150;-89
2022/10/10 17:28:13;;;;;;;2.47;0.45;;;10.90;99.90;;;;;;4781721;30;20139;-87
2022/10/10 17:35:22;;;;;;;1.98;0.55;;;10.70;99.90;;;;;;4804347;29;20061;-86
2022/10/10 17:37:53;;;;;;;1.08;0.35;;;10.60;99.90;;;;;;4835093;29;20138;-87
2022/10/10 17:40:23;;;;;;;1.95;0.40;;;10.50;99.90;;;;;;4846603;29;20124;-88
2022/10/10 17:42:52;;;;;;;5.90;0.40;;;10.50;99.90;;;;;;4853221;29;20475;-88
2022/10/10 17:46:11;;;;;;;2.38;0.40;;;10.50;99.90;;;;;;4838754;29;20495;-86
2022/10/10 17:49:11;;;;;;;2.65;0.50;;;10.90;99.90;;;;;;4781005;30;20070;-86
2022/10/10 17:52:00;;;;;;;0.93;0.43;;;10.30;99.90;;;;;;4783865;30;20065;-86
2022/10/10 17:54:36;;;;;;;1.65;0.50;;;10.20;99.90;;;;;;4803872;29;20111;-87
2022/10/10 17:57:14;;;;;;;3.30;0.50;;;10.10;99.90;;;;;;4797207;29;20047;-91
2022/10/10 17:59:57;;;;;;;2.80;0.60;;;10.10;99.90;;;;;;4802047;29;20112;-86
2022/10/10 18:02:28;;;;;;;1.45;0.52;;;9.70;99.90;;;;;;4788294;29;20600;-86
2022/10/10 18:05:13;;;;;;;2.75;0.70;;;10.00;99.90;;;;;;4787380;29;20389;-87
2022/10/10 18:07:54;;;;;;;4.32;0.80;;;9.50;99.90;;;;;;4783798;29;20050;-88
2022/10/10 18:10:47;;;;;;;4.50;0.73;;;9.80;99.90;;;;;;4788353;30;20047;-88
2022/10/10 18:13:41;;;;;;;3.03;0.60;;;9.70;99.90;;;;;;4789579;29;20059;-86
2022/10/10 18:16:32;;;;;;;2.33;0.60;;;9.70;99.90;;;;;;4787352;29;20066;-87
2022/10/10 18:19:11;;;;;;;4.63;0.88;;;9.60;99.90;;;;;;4796497;29;20096;-89
2022/10/10 18:21:46;;;;;;;4.15;0.75;;;9.60;99.90;;;;;;4802176;29;20130;-90
2022/10/10 18:24:54;;;;;;;1.98;0.60;;;9.50;99.90;;;;;;4797168;29;20082;-88
2022/10/10 18:27:34;;;;;;;2.38;0.70;;;9.50;99.90;;;;;;4891015;29;20391;-87
2022/10/10 18:30:16;;;;;;;0.80;0.40;;;9.40;99.90;;;;;;4898625;29;20055;-88
2022/10/10 18:33:13;;;;;;;4.07;0.52;;;9.30;99.90;;;;;;4895733;29;20053;-87
2022/10/10 18:35:46;;;;;;;2.40;0.45;;;9.30;99.90;;;;;;4851106;29;20130;-88
2022/10/10 18:38:13;;;;;;;4.47;0.50;;;8.80;99.90;;;;;;4845108;29;20683;-87
2022/10/10 18:40:52;;;;;;;4.22;0.57;;;9.20;99.90;;;;;;4847222;29;20087;-88
2022/10/10 18:43:28;;;;;;;2.17;0.40;;;9.20;99.90;;;;;;4845354;29;20570;-88
2022/10/10 18:46:07;;;;;;;3.63;0.57;;;9.10;99.90;;;;;;4844846;29;20057;-88
2022/10/10 18:48:37;;;;;;;2.28;0.73;;;9.10;99.90;;;;;;4844649;29;20064;-88
2022/10/10 18:51:09;;;;;;;3.58;0.65;;;9.10;99.90;;;;;;4852600;29;20057;-88
2022/10/10 18:53:39;;;;;;;2.42;0.68;;;9.00;99.90;;;;;;4859040;29;20045;-88
2022/10/10 18:56:06;;;;;;;2.65;0.93;;;8.90;99.90;;;;;;4847129;29;20522;-89
2022/10/10 18:58:45;;;;;;;2.47;0.65;;;8.80;99.90;;;;;;4844578;29;20545;-88
2022/10/10 19:01:14;;;;;;;2.63;0.70;;;8.80;99.90;;;;;;4857447;29;20182;-87
2022/10/10 19:03:44;;;;;;;1.88;0.70;;;8.80;99.90;;;;;;4859885;29;20060;-87
2022/10/10 19:06:23;;;;;;;4.18;0.70;;;8.70;99.90;;;;;;4844545;29;20458;-87
2022/10/10 19:08:59;;;;;;;3.95;1.10;;;8.70;99.90;;;;;;4842063;29;20085;-87
2022/10/10 19:11:38;;;;;;;1.45;0.70;;;8.70;99.90;;;;;;4844264;29;20053;-89
2022/10/10 19:14:10;;;;;;;1.38;0.63;;;8.60;99.90;;;;;;4875363;29;20641;-89
2022/10/10 19:16:55;;;;;;;5.18;0.73;;;8.60;99.90;;;;;;4898247;29;20040;-88
2022/10/10 19:19:24;;;;;;;1.08;0.68;;;8.60;99.90;;;;;;4896834;29;20124;-88
2022/10/10 19:21:51;;;;;;;5.97;0.90;;;8.60;99.90;;;;;;4890748;29;20490;-89
2022/10/10 19:24:21;;;;;;;1.50;0.43;;;8.50;99.90;;;;;;4898650;29;20507;-90
2022/10/10 19:26:55;;;;;;;3.00;0.57;;;8.50;99.90;;;;;;4889836;29;20049;-89
2022/10/10 19:29:22;;;;;;;1.75;0.70;;;8.50;99.90;;;;;;4899156;29;20044;-89
2022/10/10 19:31:54;;;;;;;2.17;0.88;;;8.50;99.90;;;;;;4888456;29;20059;-89
2022/10/10 19:34:29;;;;;;;2.88;0.73;;;8.50;99.90;;;;;;4863604;29;20422;-88
2022/10/10 19:36:55;;;;;;;2.13;0.55;;;8.50;99.90;;;;;;4864655;29;20045;-88
2022/10/10 19:39:27;;;;;;;3.10;0.68;;;8.40;99.90;;;;;;4866312;29;20053;-88
2022/10/10 19:41:59;;;;;;;1.17;0.50;;;8.40;99.90;;;;;;4863916;29;20506;-88
2022/10/10 19:44:33;;;;;;;6.93;1.30;;;8.30;99.90;;;;;;4848608;29;20059;-88
2022/10/10 19:47:00;;;;;;;2.65;0.63;;;8.40;99.90;;;;;;4866769;29;20132;-88
2022/10/10 19:49:33;;;;;;;1.35;0.60;;;8.30;99.90;;;;;;4862547;29;20401;-88
2022/10/10 20:21:54;;;;;;;2.78;0.40;;;8.20;99.90;;;;;;4857626;29;20514;-89
2022/10/10 21:16:07;;;;;;;1.35;0.20;;;8.20;99.90;;;;;;4890297;29;20151;-87
2022/10/10 21:42:41;;;;;;;1.35;0.38;;;8.30;99.90;;;;;;4893528;29;20059;-87
2022/10/10 21:55:30;;;;;;;2.63;0.50;;;8.20;99.90;;;;;;4915145;29;20096;-87
2022/10/10 22:43:23;;;;;;;5.45;0.40;;;7.70;99.90;;;;;;4906721;29;20489;-87
2022/10/10 23:09:29;;;;;;;2.28;0.40;;;7.70;99.90;;;;;;4898739;29;20523;-88
2022/10/10 23:35:21;;;;;;;0.90;0.40;;;7.70;99.90;;;;;;4851813;29;20082;-88
